sensor_id;sensor_type;location;lat;lon;timestamp;P1;durP1;ratioP1;P2;durP2;ratioP2
3131;SDS011;62090;52.330;9.104;2023-03-01T00:01:56;9.38;;;7.20;;
3131;SDS011;62090;52.330;9.104;2023-03-01T00:06:05;11.13;;;7.97;;
3131;SDS011;62090;52.330;9.104;2023-03-01T00:10:52;9.35;;;7.65;;
3131;SDS011;62090;52.330;9.104;2023-03-01T00:41:56;11.73;;;8.43;;
3131;SDS011;62090;52.330;9.104;2023-03-01T00:46:25;12.20;;;8.35;;
3131;SDS011;62090;52.330;9.104;2023-03-01T00:50:28;11.45;;;7.50;;
3131;SDS011;62090;52.330;9.104;2023-03-01T00:54:19;11.10;;;7.70;;
3131;SDS011;62090;52.330;9.104;2023-03-01T01:15:54;9.13;;;7.55;;
3131;SDS011;62090;52.330;9.104;2023-03-01T02:50:09;10.20;;;7.35;;
3131;SDS011;62090;52.330;9.104;2023-03-01T02:54:22;9.10;;;7.13;;
3131;SDS011;62090;52.330;9.104;2023-03-01T03:02:17;13.25;;;8.15;;
3131;SDS011;62090;52.330;9.104;2023-03-01T03:10:48;12.35;;;8.32;;
3131;SDS011;62090;52.330;9.104;2023-03-01T03:13:44;10.27;;;7.25;;
3131;SDS011;62090;52.330;9.104;2023-03-01T03:17:10;12.07;;;9.05;;
3131;SDS011;62090;52.330;9.104;2023-03-01T03:20:47;12.50;;;8.57;;
3131;SDS011;62090;52.330;9.104;2023-03-01T03:23:45;10.52;;;7.80;;
3131;SDS011;62090;52.330;9.104;2023-03-01T03:26:50;11.65;;;8.52;;
3131;SDS011;62090;52.330;9.104;2023-03-01T03:30:30;11.05;;;8.15;;
3131;SDS011;62090;52.330;9.104;2023-03-01T03:34:11;8.68;;;7.57;;
3131;SDS011;62090;52.330;9.104;2023-03-01T03:37:12;10.43;;;8.23;;
3131;SDS011;62090;52.330;9.104;2023-03-01T03:40:09;12.82;;;7.95;;
3131;SDS011;62090;52.330;9.104;2023-03-01T03:43:07;11.30;;;8.40;;
3131;SDS011;62090;52.330;9.104;2023-03-01T03:45:52;11.85;;;8.55;;
3131;SDS011;62090;52.330;9.104;2023-03-01T03:48:55;11.75;;;8.05;;
3131;SDS011;62090;52.330;9.104;2023-03-01T03:55:48;12.80;;;8.35;;
3131;SDS011;62090;52.330;9.104;2023-03-01T04:07:09;9.48;;;7.47;;
3131;SDS011;62090;52.330;9.104;2023-03-01T04:10:14;9.43;;;7.57;;
3131;SDS011;62090;52.330;9.104;2023-03-01T04:14:14;12.18;;;8.05;;
3131;SDS011;62090;52.330;9.104;2023-03-01T04:16:58;12.30;;;8.10;;
3131;SDS011;62090;52.330;9.104;2023-03-01T04:20:12;11.57;;;8.07;;
3131;SDS011;62090;52.330;9.104;2023-03-01T04:26:30;14.18;;;8.10;;
3131;SDS011;62090;52.330;9.104;2023-03-01T04:29:17;9.23;;;7.80;;
3131;SDS011;62090;52.330;9.104;2023-03-01T04:32:25;10.75;;;8.35;;
3131;SDS011;62090;52.330;9.104;2023-03-01T04:35:22;10.07;;;7.85;;
3131;SDS011;62090;52.330;9.104;2023-03-01T04:38:34;11.13;;;8.15;;
3131;SDS011;62090;52.330;9.104;2023-03-01T04:48:11;10.70;;;8.55;;
3131;SDS011;62090;52.330;9.104;2023-03-01T04:51:33;11.43;;;8.00;;
3131;SDS011;62090;52.330;9.104;2023-03-01T04:54:39;13.75;;;9.15;;
3131;SDS011;62090;52.330;9.104;2023-03-01T05:01:25;10.88;;;9.52;;
3131;SDS011;62090;52.330;9.104;2023-03-01T05:04:15;18.27;;;8.80;;
3131;SDS011;62090;52.330;9.104;2023-03-01T05:06:58;12.40;;;8.70;;
3131;SDS011;62090;52.330;9.104;2023-03-01T05:09:38;12.90;;;9.15;;
3131;SDS011;62090;52.330;9.104;2023-03-01T05:12:16;13.35;;;9.60;;
3131;SDS011;62090;52.330;9.104;2023-03-01T05:14:46;13.68;;;9.30;;
3131;SDS011;62090;52.330;9.104;2023-03-01T05:17:21;16.83;;;10.75;;
3131;SDS011;62090;52.330;9.104;2023-03-01T05:20:02;11.85;;;9.55;;
3131;SDS011;62090;52.330;9.104;2023-03-01T05:22:38;12.30;;;9.40;;
3131;SDS011;62090;52.330;9.104;2023-03-01T05:25:14;14.00;;;8.85;;
3131;SDS011;62090;52.330;9.104;2023-03-01T05:27:56;9.30;;;7.90;;
3131;SDS011;62090;52.330;9.104;2023-03-01T05:30:30;11.20;;;8.52;;
3131;SDS011;62090;52.330;9.104;2023-03-01T05:33:09;13.13;;;8.70;;
3131;SDS011;62090;52.330;9.104;2023-03-01T05:35:43;10.48;;;8.38;;
3131;SDS011;62090;52.330;9.104;2023-03-01T05:38:20;11.75;;;8.68;;
3131;SDS011;62090;52.330;9.104;2023-03-01T05:44:18;10.18;;;8.30;;
3131;SDS011;62090;52.330;9.104;2023-03-01T06:06:41;11.45;;;8.40;;
3131;SDS011;62090;52.330;9.104;2023-03-01T06:09:11;12.15;;;9.00;;
3131;SDS011;62090;52.330;9.104;2023-03-01T06:11:52;9.68;;;8.68;;
3131;SDS011;62090;52.330;9.104;2023-03-01T06:14:47;13.10;;;8.77;;
3131;SDS011;62090;52.330;9.104;2023-03-01T06:17:17;10.75;;;7.72;;
3131;SDS011;62090;52.330;9.104;2023-03-01T06:19:47;17.60;;;8.05;;
3131;SDS011;62090;52.330;9.104;2023-03-01T06:22:19;10.30;;;7.45;;
3131;SDS011;62090;52.330;9.104;2023-03-01T06:24:50;13.30;;;7.82;;
3131;SDS011;62090;52.330;9.104;2023-03-01T06:27:19;16.30;;;8.88;;
3131;SDS011;62090;52.330;9.104;2023-03-01T06:29:50;11.65;;;8.93;;
3131;SDS011;62090;52.330;9.104;2023-03-01T06:36:41;15.98;;;9.18;;
3131;SDS011;62090;52.330;9.104;2023-03-01T06:40:46;15.88;;;10.35;;
3131;SDS011;62090;52.330;9.104;2023-03-01T06:44:35;13.55;;;9.45;;
3131;SDS011;62090;52.330;9.104;2023-03-01T07:06:09;18.98;;;12.55;;
3131;SDS011;62090;52.330;9.104;2023-03-01T07:08:39;22.92;;;12.45;;
3131;SDS011;62090;52.330;9.104;2023-03-01T07:11:14;24.75;;;14.45;;
3131;SDS011;62090;52.330;9.104;2023-03-01T07:13:45;17.92;;;12.65;;
3131;SDS011;62090;52.330;9.104;2023-03-01T07:16:14;21.73;;;13.82;;
3131;SDS011;62090;52.330;9.104;2023-03-01T07:47:27;19.08;;;13.02;;
3131;SDS011;62090;52.330;9.104;2023-03-01T07:50:21;20.52;;;13.32;;
3131;SDS011;62090;52.330;9.104;2023-03-01T07:53:10;19.50;;;13.52;;
3131;SDS011;62090;52.330;9.104;2023-03-01T07:55:40;20.63;;;14.10;;
3131;SDS011;62090;52.330;9.104;2023-03-01T07:58:10;15.93;;;12.23;;
3131;SDS011;62090;52.330;9.104;2023-03-01T08:00:40;23.00;;;13.98;;
3131;SDS011;62090;52.330;9.104;2023-03-01T08:03:12;17.08;;;12.52;;
3131;SDS011;62090;52.330;9.104;2023-03-01T08:05:40;16.65;;;13.70;;
3131;SDS011;62090;52.330;9.104;2023-03-01T08:08:10;18.52;;;13.25;;
3131;SDS011;62090;52.330;9.104;2023-03-01T08:10:39;21.25;;;14.18;;
3131;SDS011;62090;52.330;9.104;2023-03-01T08:13:10;19.70;;;14.70;;
3131;SDS011;62090;52.330;9.104;2023-03-01T08:38:32;17.17;;;12.40;;
3131;SDS011;62090;52.330;9.104;2023-03-01T10:00:39;9.20;;;6.13;;
3131;SDS011;62090;52.330;9.104;2023-03-01T10:07:54;10.13;;;6.03;;
3131;SDS011;62090;52.330;9.104;2023-03-01T10:10:36;10.03;;;6.13;;
3131;SDS011;62090;52.330;9.104;2023-03-01T10:13:10;9.63;;;5.60;;
3131;SDS011;62090;52.330;9.104;2023-03-01T10:15:50;17.43;;;6.20;;
3131;SDS011;62090;52.330;9.104;2023-03-01T10:18:25;8.90;;;5.97;;
3131;SDS011;62090;52.330;9.104;2023-03-01T10:20:57;9.90;;;6.03;;
3131;SDS011;62090;52.330;9.104;2023-03-01T10:23:29;13.07;;;6.77;;
3131;SDS011;62090;52.330;9.104;2023-03-01T10:26:04;10.97;;;7.43;;
3131;SDS011;62090;52.330;9.104;2023-03-01T10:28:43;11.20;;;6.47;;
3131;SDS011;62090;52.330;9.104;2023-03-01T10:31:34;11.10;;;5.70;;
3131;SDS011;62090;52.330;9.104;2023-03-01T10:34:13;12.30;;;6.77;;
3131;SDS011;62090;52.330;9.104;2023-03-01T10:36:47;12.60;;;6.33;;
3131;SDS011;62090;52.330;9.104;2023-03-01T10:39:18;9.53;;;6.43;;
3131;SDS011;62090;52.330;9.104;2023-03-01T10:41:57;10.60;;;6.60;;
3131;SDS011;62090;52.330;9.104;2023-03-01T10:44:42;9.40;;;6.50;;
3131;SDS011;62090;52.330;9.104;2023-03-01T10:47:17;12.50;;;6.40;;
3131;SDS011;62090;52.330;9.104;2023-03-01T10:49:53;11.70;;;7.50;;
3131;SDS011;62090;52.330;9.104;2023-03-01T10:52:26;12.20;;;7.63;;
3131;SDS011;62090;52.330;9.104;2023-03-01T10:54:59;12.30;;;7.80;;
3131;SDS011;62090;52.330;9.104;2023-03-01T10:57:34;16.20;;;8.70;;
3131;SDS011;62090;52.330;9.104;2023-03-01T11:00:19;14.70;;;7.90;;
3131;SDS011;62090;52.330;9.104;2023-03-01T11:05:50;10.60;;;7.30;;
3131;SDS011;62090;52.330;9.104;2023-03-01T11:08:35;10.83;;;8.20;;
3131;SDS011;62090;52.330;9.104;2023-03-01T11:14:01;11.60;;;7.90;;
3131;SDS011;62090;52.330;9.104;2023-03-01T11:16:58;12.50;;;6.83;;
3131;SDS011;62090;52.330;9.104;2023-03-01T11:19:32;13.73;;;6.97;;
3131;SDS011;62090;52.330;9.104;2023-03-01T11:22:03;12.17;;;7.03;;
3131;SDS011;62090;52.330;9.104;2023-03-01T11:24:37;10.87;;;7.00;;
3131;SDS011;62090;52.330;9.104;2023-03-01T11:27:17;11.77;;;6.80;;
3131;SDS011;62090;52.330;9.104;2023-03-01T11:29:51;12.70;;;6.87;;
3131;SDS011;62090;52.330;9.104;2023-03-01T11:32:24;9.17;;;6.30;;
3131;SDS011;62090;52.330;9.104;2023-03-01T11:35:00;11.97;;;6.40;;
3131;SDS011;62090;52.330;9.104;2023-03-01T11:37:38;12.93;;;7.03;;
3131;SDS011;62090;52.330;9.104;2023-03-01T11:40:13;8.93;;;6.20;;
3131;SDS011;62090;52.330;9.104;2023-03-01T11:42:48;10.73;;;6.50;;
3131;SDS011;62090;52.330;9.104;2023-03-01T11:45:25;9.63;;;6.50;;
3131;SDS011;62090;52.330;9.104;2023-03-01T11:51:19;16.33;;;8.20;;
3131;SDS011;62090;52.330;9.104;2023-03-01T11:53:58;9.90;;;6.00;;
3131;SDS011;62090;52.330;9.104;2023-03-01T11:56:34;13.93;;;7.73;;
3131;SDS011;62090;52.330;9.104;2023-03-01T11:59:20;10.93;;;7.93;;
3131;SDS011;62090;52.330;9.104;2023-03-01T12:05:31;14.13;;;7.20;;
3131;SDS011;62090;52.330;9.104;2023-03-01T12:08:28;9.27;;;6.00;;
3131;SDS011;62090;52.330;9.104;2023-03-01T12:11:03;12.57;;;7.10;;
3131;SDS011;62090;52.330;9.104;2023-03-01T12:13:52;11.87;;;6.83;;
3131;SDS011;62090;52.330;9.104;2023-03-01T12:16:40;11.93;;;7.10;;
3131;SDS011;62090;52.330;9.104;2023-03-01T12:19:33;10.37;;;6.07;;
3131;SDS011;62090;52.330;9.104;2023-03-01T12:22:23;10.30;;;6.90;;
3131;SDS011;62090;52.330;9.104;2023-03-01T12:28:01;11.67;;;6.80;;
3131;SDS011;62090;52.330;9.104;2023-03-01T12:30:46;9.17;;;6.33;;
3131;SDS011;62090;52.330;9.104;2023-03-01T12:33:31;9.30;;;5.87;;
3131;SDS011;62090;52.330;9.104;2023-03-01T12:36:13;10.60;;;6.47;;
3131;SDS011;62090;52.330;9.104;2023-03-01T12:39:03;10.87;;;6.77;;
3131;SDS011;62090;52.330;9.104;2023-03-01T12:41:53;11.37;;;6.20;;
3131;SDS011;62090;52.330;9.104;2023-03-01T12:44:35;11.37;;;5.40;;
3131;SDS011;62090;52.330;9.104;2023-03-01T12:47:30;8.53;;;5.40;;
3131;SDS011;62090;52.330;9.104;2023-03-01T12:50:11;12.47;;;5.93;;
3131;SDS011;62090;52.330;9.104;2023-03-01T12:52:47;8.27;;;5.13;;
3131;SDS011;62090;52.330;9.104;2023-03-01T12:55:24;6.40;;;4.97;;
3131;SDS011;62090;52.330;9.104;2023-03-01T12:58:04;10.90;;;5.00;;
3131;SDS011;62090;52.330;9.104;2023-03-01T13:00:45;6.90;;;4.63;;
3131;SDS011;62090;52.330;9.104;2023-03-01T13:03:30;6.73;;;4.53;;
3131;SDS011;62090;52.330;9.104;2023-03-01T13:06:08;12.10;;;5.50;;
3131;SDS011;62090;52.330;9.104;2023-03-01T13:08:46;6.33;;;4.53;;
3131;SDS011;62090;52.330;9.104;2023-03-01T13:11:22;5.87;;;3.93;;
3131;SDS011;62090;52.330;9.104;2023-03-01T13:13:58;14.03;;;4.93;;
3131;SDS011;62090;52.330;9.104;2023-03-01T13:17:07;6.87;;;4.50;;
3131;SDS011;62090;52.330;9.104;2023-03-01T13:20:00;8.00;;;4.63;;
3131;SDS011;62090;52.330;9.104;2023-03-01T13:22:31;6.60;;;3.90;;
3131;SDS011;62090;52.330;9.104;2023-03-01T13:25:19;6.43;;;4.33;;
3131;SDS011;62090;52.330;9.104;2023-03-01T13:30:57;5.67;;;3.50;;
3131;SDS011;62090;52.330;9.104;2023-03-01T13:39:27;10.23;;;4.13;;
3131;SDS011;62090;52.330;9.104;2023-03-01T13:41:59;6.40;;;3.20;;
3131;SDS011;62090;52.330;9.104;2023-03-01T13:44:30;8.00;;;3.80;;
3131;SDS011;62090;52.330;9.104;2023-03-01T13:47:06;6.30;;;4.17;;
3131;SDS011;62090;52.330;9.104;2023-03-01T13:49:51;9.53;;;3.73;;
3131;SDS011;62090;52.330;9.104;2023-03-01T13:52:30;6.27;;;3.33;;
3131;SDS011;62090;52.330;9.104;2023-03-01T13:55:13;5.47;;;3.53;;
3131;SDS011;62090;52.330;9.104;2023-03-01T13:57:47;8.77;;;4.17;;
3131;SDS011;62090;52.330;9.104;2023-03-01T14:00:27;6.73;;;3.70;;
3131;SDS011;62090;52.330;9.104;2023-03-01T14:03:00;7.53;;;4.03;;
3131;SDS011;62090;52.330;9.104;2023-03-01T14:05:34;10.40;;;3.17;;
3131;SDS011;62090;52.330;9.104;2023-03-01T14:08:05;7.40;;;3.40;;
3131;SDS011;62090;52.330;9.104;2023-03-01T14:10:53;7.33;;;3.50;;
3131;SDS011;62090;52.330;9.104;2023-03-01T14:13:41;6.13;;;3.73;;
3131;SDS011;62090;52.330;9.104;2023-03-01T14:16:24;4.03;;;2.77;;
3131;SDS011;62090;52.330;9.104;2023-03-01T14:19:08;7.63;;;3.20;;
3131;SDS011;62090;52.330;9.104;2023-03-01T14:22:02;5.77;;;3.67;;
3131;SDS011;62090;52.330;9.104;2023-03-01T14:24:44;3.47;;;2.90;;
3131;SDS011;62090;52.330;9.104;2023-03-01T14:27:17;6.73;;;2.40;;
3131;SDS011;62090;52.330;9.104;2023-03-01T14:29:53;4.20;;;2.67;;
3131;SDS011;62090;52.330;9.104;2023-03-01T14:32:25;5.93;;;3.10;;
3131;SDS011;62090;52.330;9.104;2023-03-01T14:34:56;6.30;;;3.03;;
3131;SDS011;62090;52.330;9.104;2023-03-01T14:37:30;4.37;;;2.67;;
3131;SDS011;62090;52.330;9.104;2023-03-01T14:40:02;5.70;;;3.27;;
3131;SDS011;62090;52.330;9.104;2023-03-01T14:42:34;4.00;;;2.60;;
3131;SDS011;62090;52.330;9.104;2023-03-01T14:45:05;6.07;;;2.97;;
3131;SDS011;62090;52.330;9.104;2023-03-01T14:47:43;5.60;;;2.88;;
3131;SDS011;62090;52.330;9.104;2023-03-01T14:50:17;3.07;;;2.50;;
3131;SDS011;62090;52.330;9.104;2023-03-01T14:52:55;7.27;;;3.30;;
3131;SDS011;62090;52.330;9.104;2023-03-01T14:55:29;5.10;;;3.10;;
3131;SDS011;62090;52.330;9.104;2023-03-01T14:58:02;6.10;;;3.10;;
3131;SDS011;62090;52.330;9.104;2023-03-01T15:00:33;4.00;;;3.03;;
3131;SDS011;62090;52.330;9.104;2023-03-01T15:03:06;7.23;;;3.23;;
3131;SDS011;62090;52.330;9.104;2023-03-01T15:05:40;7.83;;;3.50;;
3131;SDS011;62090;52.330;9.104;2023-03-01T15:08:16;6.60;;;3.50;;
3131;SDS011;62090;52.330;9.104;2023-03-01T15:10:58;7.60;;;2.73;;
3131;SDS011;62090;52.330;9.104;2023-03-01T15:13:34;6.07;;;3.30;;
3131;SDS011;62090;52.330;9.104;2023-03-01T15:16:07;6.50;;;3.07;;
3131;SDS011;62090;52.330;9.104;2023-03-01T15:18:43;5.57;;;2.70;;
3131;SDS011;62090;52.330;9.104;2023-03-01T15:21:20;10.93;;;3.33;;
3131;SDS011;62090;52.330;9.104;2023-03-01T15:23:56;11.30;;;3.30;;
3131;SDS011;62090;52.330;9.104;2023-03-01T15:26:39;6.03;;;3.57;;
3131;SDS011;62090;52.330;9.104;2023-03-01T15:29:14;3.93;;;3.00;;
3131;SDS011;62090;52.330;9.104;2023-03-01T15:31:53;3.77;;;3.00;;
3131;SDS011;62090;52.330;9.104;2023-03-01T15:34:25;8.57;;;3.57;;
3131;SDS011;62090;52.330;9.104;2023-03-01T15:36:57;5.50;;;2.87;;
3131;SDS011;62090;52.330;9.104;2023-03-01T15:39:38;5.83;;;3.70;;
3131;SDS011;62090;52.330;9.104;2023-03-01T15:42:11;4.90;;;2.77;;
3131;SDS011;62090;52.330;9.104;2023-03-01T15:44:43;8.73;;;3.30;;
3131;SDS011;62090;52.330;9.104;2023-03-01T15:47:23;7.30;;;3.33;;
3131;SDS011;62090;52.330;9.104;2023-03-01T15:49:56;4.63;;;3.10;;
3131;SDS011;62090;52.330;9.104;2023-03-01T15:52:29;4.97;;;3.20;;
3131;SDS011;62090;52.330;9.104;2023-03-01T15:55:14;5.13;;;3.10;;
3131;SDS011;62090;52.330;9.104;2023-03-01T15:57:46;9.23;;;3.40;;
3131;SDS011;62090;52.330;9.104;2023-03-01T16:00:17;4.80;;;2.90;;
3131;SDS011;62090;52.330;9.104;2023-03-01T16:02:48;8.50;;;3.20;;
3131;SDS011;62090;52.330;9.104;2023-03-01T16:05:18;3.70;;;2.90;;
3131;SDS011;62090;52.330;9.104;2023-03-01T16:07:50;8.10;;;3.90;;
3131;SDS011;62090;52.330;9.104;2023-03-01T16:10:23;5.50;;;3.13;;
3131;SDS011;62090;52.330;9.104;2023-03-01T16:12:53;7.27;;;3.50;;
3131;SDS011;62090;52.330;9.104;2023-03-01T16:15:25;4.87;;;3.80;;
3131;SDS011;62090;52.330;9.104;2023-03-01T16:17:58;9.13;;;3.53;;
3131;SDS011;62090;52.330;9.104;2023-03-01T16:20:28;7.30;;;4.33;;
3131;SDS011;62090;52.330;9.104;2023-03-01T16:22:59;5.37;;;4.60;;
3131;SDS011;62090;52.330;9.104;2023-03-01T16:25:33;11.00;;;6.70;;
3131;SDS011;62090;52.330;9.104;2023-03-01T16:28:04;11.13;;;4.23;;
3131;SDS011;62090;52.330;9.104;2023-03-01T16:30:35;8.53;;;5.27;;
3131;SDS011;62090;52.330;9.104;2023-03-01T16:33:06;6.30;;;5.00;;
3131;SDS011;62090;52.330;9.104;2023-03-01T16:35:57;4.20;;;3.50;;
3131;SDS011;62090;52.330;9.104;2023-03-01T16:38:28;9.60;;;3.60;;
3131;SDS011;62090;52.330;9.104;2023-03-01T16:41:04;6.50;;;3.90;;
3131;SDS011;62090;52.330;9.104;2023-03-01T16:43:34;23.10;;;14.90;;
3131;SDS011;62090;52.330;9.104;2023-03-01T16:46:09;15.60;;;10.17;;
3131;SDS011;62090;52.330;9.104;2023-03-01T16:48:39;26.77;;;17.27;;
3131;SDS011;62090;52.330;9.104;2023-03-01T16:51:09;16.20;;;11.80;;
3131;SDS011;62090;52.330;9.104;2023-03-01T16:53:39;8.87;;;5.20;;
3131;SDS011;62090;52.330;9.104;2023-03-01T16:56:16;5.70;;;3.80;;
3131;SDS011;62090;52.330;9.104;2023-03-01T16:58:46;7.00;;;4.50;;
3131;SDS011;62090;52.330;9.104;2023-03-01T17:01:17;7.17;;;4.20;;
3131;SDS011;62090;52.330;9.104;2023-03-01T17:03:49;5.30;;;3.60;;
3131;SDS011;62090;52.330;9.104;2023-03-01T17:06:20;7.77;;;4.07;;
3131;SDS011;62090;52.330;9.104;2023-03-01T17:08:51;4.57;;;3.60;;
3131;SDS011;62090;52.330;9.104;2023-03-01T17:11:24;7.67;;;3.83;;
3131;SDS011;62090;52.330;9.104;2023-03-01T17:13:54;4.37;;;3.30;;
3131;SDS011;62090;52.330;9.104;2023-03-01T17:16:24;6.50;;;4.00;;
3131;SDS011;62090;52.330;9.104;2023-03-01T17:18:53;4.83;;;4.10;;
3131;SDS011;62090;52.330;9.104;2023-03-01T17:21:23;8.63;;;4.10;;
3131;SDS011;62090;52.330;9.104;2023-03-01T17:23:54;6.50;;;3.70;;
3131;SDS011;62090;52.330;9.104;2023-03-01T17:26:28;8.57;;;5.00;;
3131;SDS011;62090;52.330;9.104;2023-03-01T17:28:58;9.43;;;4.57;;
3131;SDS011;62090;52.330;9.104;2023-03-01T17:31:29;7.43;;;4.50;;
3131;SDS011;62090;52.330;9.104;2023-03-01T17:34:00;7.07;;;5.00;;
3131;SDS011;62090;52.330;9.104;2023-03-01T17:36:30;14.97;;;5.37;;
3131;SDS011;62090;52.330;9.104;2023-03-01T17:39:07;7.37;;;5.13;;
3131;SDS011;62090;52.330;9.104;2023-03-01T17:41:39;8.37;;;5.07;;
3131;SDS011;62090;52.330;9.104;2023-03-01T17:44:09;9.67;;;6.00;;
3131;SDS011;62090;52.330;9.104;2023-03-01T17:46:39;8.50;;;5.80;;
3131;SDS011;62090;52.330;9.104;2023-03-01T17:49:09;10.80;;;6.30;;
3131;SDS011;62090;52.330;9.104;2023-03-01T17:51:39;15.40;;;8.80;;
3131;SDS011;62090;52.330;9.104;2023-03-01T17:54:10;12.93;;;7.67;;
3131;SDS011;62090;52.330;9.104;2023-03-01T17:56:42;7.93;;;4.73;;
3131;SDS011;62090;52.330;9.104;2023-03-01T17:59:12;7.00;;;4.50;;
3131;SDS011;62090;52.330;9.104;2023-03-01T18:01:43;11.10;;;4.70;;
3131;SDS011;62090;52.330;9.104;2023-03-01T18:04:13;5.37;;;4.30;;
3131;SDS011;62090;52.330;9.104;2023-03-01T18:06:44;7.90;;;5.07;;
3131;SDS011;62090;52.330;9.104;2023-03-01T18:09:13;6.93;;;5.23;;
3131;SDS011;62090;52.330;9.104;2023-03-01T18:11:46;10.90;;;6.37;;
3131;SDS011;62090;52.330;9.104;2023-03-01T18:14:16;11.20;;;7.83;;
3131;SDS011;62090;52.330;9.104;2023-03-01T18:16:46;16.30;;;9.90;;
3131;SDS011;62090;52.330;9.104;2023-03-01T18:19:16;17.90;;;7.73;;
3131;SDS011;62090;52.330;9.104;2023-03-01T18:21:46;13.90;;;7.33;;
3131;SDS011;62090;52.330;9.104;2023-03-01T18:24:16;10.40;;;6.10;;
3131;SDS011;62090;52.330;9.104;2023-03-01T18:26:49;11.77;;;6.87;;
3131;SDS011;62090;52.330;9.104;2023-03-01T18:29:20;15.40;;;8.07;;
3131;SDS011;62090;52.330;9.104;2023-03-01T18:31:50;16.03;;;8.00;;
3131;SDS011;62090;52.330;9.104;2023-03-01T18:34:58;9.93;;;6.80;;
3131;SDS011;62090;52.330;9.104;2023-03-01T18:37:40;13.80;;;7.90;;
3131;SDS011;62090;52.330;9.104;2023-03-01T18:40:10;15.10;;;7.20;;
3131;SDS011;62090;52.330;9.104;2023-03-01T18:42:43;12.40;;;7.40;;
3131;SDS011;62090;52.330;9.104;2023-03-01T18:45:23;12.07;;;7.90;;
3131;SDS011;62090;52.330;9.104;2023-03-01T18:47:53;15.40;;;8.83;;
3131;SDS011;62090;52.330;9.104;2023-03-01T18:50:23;16.00;;;7.97;;
3131;SDS011;62090;52.330;9.104;2023-03-01T18:52:53;15.50;;;8.30;;
3131;SDS011;62090;52.330;9.104;2023-03-01T18:55:23;14.27;;;8.03;;
3131;SDS011;62090;52.330;9.104;2023-03-01T18:57:55;16.17;;;9.43;;
3131;SDS011;62090;52.330;9.104;2023-03-01T19:00:25;14.17;;;9.17;;
3131;SDS011;62090;52.330;9.104;2023-03-01T19:02:55;10.60;;;7.13;;
3131;SDS011;62090;52.330;9.104;2023-03-01T19:05:26;10.43;;;7.83;;
3131;SDS011;62090;52.330;9.104;2023-03-01T19:07:56;12.23;;;7.73;;
3131;SDS011;62090;52.330;9.104;2023-03-01T19:10:26;10.70;;;6.83;;
3131;SDS011;62090;52.330;9.104;2023-03-01T19:13:00;10.23;;;6.67;;
3131;SDS011;62090;52.330;9.104;2023-03-01T19:15:29;11.37;;;6.70;;
3131;SDS011;62090;52.330;9.104;2023-03-01T19:17:59;12.33;;;7.70;;
3131;SDS011;62090;52.330;9.104;2023-03-01T19:20:30;8.90;;;5.80;;
3131;SDS011;62090;52.330;9.104;2023-03-01T19:22:59;9.50;;;6.10;;
3131;SDS011;62090;52.330;9.104;2023-03-01T19:25:29;11.63;;;6.37;;
3131;SDS011;62090;52.330;9.104;2023-03-01T19:28:01;9.40;;;5.90;;
3131;SDS011;62090;52.330;9.104;2023-03-01T19:30:31;13.83;;;7.47;;
3131;SDS011;62090;52.330;9.104;2023-03-01T19:33:01;12.03;;;6.90;;
3131;SDS011;62090;52.330;9.104;2023-03-01T19:35:32;15.53;;;9.50;;
3131;SDS011;62090;52.330;9.104;2023-03-01T19:38:03;19.03;;;9.50;;
3131;SDS011;62090;52.330;9.104;2023-03-01T19:40:34;14.10;;;9.23;;
3131;SDS011;62090;52.330;9.104;2023-03-01T19:43:07;15.60;;;9.60;;
3131;SDS011;62090;52.330;9.104;2023-03-01T19:45:37;18.00;;;10.83;;
3131;SDS011;62090;52.330;9.104;2023-03-01T19:48:06;15.87;;;10.00;;
3131;SDS011;62090;52.330;9.104;2023-03-01T19:50:36;21.90;;;11.60;;
3131;SDS011;62090;52.330;9.104;2023-03-01T19:53:36;21.03;;;11.03;;
3131;SDS011;62090;52.330;9.104;2023-03-01T19:57:04;15.13;;;9.90;;
3131;SDS011;62090;52.330;9.104;2023-03-01T19:59:50;15.57;;;9.30;;
3131;SDS011;62090;52.330;9.104;2023-03-01T20:02:30;16.10;;;9.30;;
3131;SDS011;62090;52.330;9.104;2023-03-01T20:05:12;14.40;;;7.20;;
3131;SDS011;62090;52.330;9.104;2023-03-01T20:07:53;14.60;;;7.63;;
3131;SDS011;62090;52.330;9.104;2023-03-01T20:10:52;13.10;;;8.47;;
3131;SDS011;62090;52.330;9.104;2023-03-01T20:13:27;15.83;;;8.90;;
3131;SDS011;62090;52.330;9.104;2023-03-01T20:16:02;14.77;;;8.87;;
3131;SDS011;62090;52.330;9.104;2023-03-01T20:18:37;10.63;;;6.80;;
3131;SDS011;62090;52.330;9.104;2023-03-01T20:21:07;14.60;;;6.70;;
3131;SDS011;62090;52.330;9.104;2023-03-01T20:24:04;10.40;;;7.40;;
3131;SDS011;62090;52.330;9.104;2023-03-01T20:27:06;15.20;;;9.23;;
